Time;durP1;ratioP1;P1;durP2;ratioP2;P2;SDS_P1;SDS_P2;PMS_P1;PMS_P2;Temp;Humidity;BMP_temperature;BMP_pressure;BME280_temperature;BME280_humidity;BME280_pressure;Samples;Min_cycle;Max_cycle;Signal;HPM_P1;HPM_P2
2023/05/13 00:00:20;;;;;;;10.63;4.90;;;;;;;;;;6307913;28;20029;-76
2023/05/13 00:03:21;;;;;;;12.85;5.13;;;;;;;;;;6299898;28;20381;-76
2023/05/13 00:06:21;;;;;;;10.35;4.45;;;;;;;;;;6295457;28;20013;-76
2023/05/13 00:09:21;;;;;;;8.43;4.40;;;;;;;;;;6314610;28;20546;-77
2023/05/13 00:12:21;;;;;;;9.17;4.60;;;;;;;;;;6305515;28;20008;-77
2023/05/13 00:15:22;;;;;;;11.35;4.45;;;;;;;;;;6284849;28;20028;-77
2023/05/13 00:18:22;;;;;;;9.67;4.90;;;;;;;;;;6282961;28;20620;-77
2023/05/13 00:21:22;;;;;;;8.77;4.47;;;;;;;;;;6316619;28;20531;-79
2023/05/13 00:24:22;;;;;;;11.88;5.63;;;;;;;;;;6308780;28;20257;-78
2023/05/13 00:27:23;;;;;;;14.00;6.00;;;;;;;;;;6290625;28;20024;-78
2023/05/13 00:30:23;;;;;;;17.08;6.35;;;;;;;;;;6300339;28;20664;-78
2023/05/13 00:33:23;;;;;;;11.43;5.47;;;;;;;;;;6297378;28;20020;-78
2023/05/13 00:36:26;;;;;;;11.55;5.78;;;;;;;;;;6316612;28;20020;-78
2023/05/13 00:39:27;;;;;;;10.50;4.80;;;;;;;;;;6305995;28;20023;-78
2023/05/13 00:42:27;;;;;;;19.60;5.57;;;;;;;;;;6317583;28;20012;-78
2023/05/13 00:45:28;;;;;;;11.10;4.47;;;;;;;;;;6314877;28;20103;-78
2023/05/13 00:48:28;;;;;;;11.85;5.22;;;;;;;;;;6306995;28;20262;-78
2023/05/13 00:51:30;;;;;;;7.68;5.03;;;;;;;;;;6294548;28;20050;-78
2023/05/13 00:54:30;;;;;;;8.32;4.50;;;;;;;;;;6314255;28;20022;-78
2023/05/13 00:57:31;;;;;;;7.05;4.45;;;;;;;;;;6316026;28;20398;-78
2023/05/13 01:00:35;;;;;;;8.40;4.67;;;;;;;;;;6307860;28;20043;-78
2023/05/13 01:03:45;;;;;;;10.60;5.25;;;;;;;;;;6299543;28;20024;-78
2023/05/13 01:06:59;;;;;;;9.88;5.20;;;;;;;;;;6316544;28;20481;-79
2023/05/13 01:10:04;;;;;;;10.50;5.28;;;;;;;;;;6318402;28;20469;-79
2023/05/13 01:13:17;;;;;;;9.05;4.78;;;;;;;;;;6303310;28;20016;-79
2023/05/13 01:16:17;;;;;;;;;;;;;;;;;;6310990;28;20446;-79
2023/05/13 01:19:40;;;;;;;9.32;5.13;;;;;;;;;;6275643;28;19915;-79
2023/05/13 01:22:42;;;;;;;9.07;5.47;;;;;;;;;;6299997;28;20013;-78
2023/05/13 01:25:44;;;;;;;12.60;5.88;;;;;;;;;;6304166;28;20107;-79
2023/05/13 01:28:44;;;;;;;;;;;;;;;;;;6303372;28;20028;-79
2023/05/13 01:31:45;;;;;;;9.88;5.35;;;;;;;;;;6314963;28;19919;-77
2023/05/13 01:34:46;;;;;;;8.45;4.82;;;;;;;;;;6310262;28;20016;-77
2023/05/13 01:37:47;;;;;;;9.73;5.07;;;;;;;;;;6316394;28;20454;-77
2023/05/13 01:40:48;;;;;;;11.70;5.53;;;;;;;;;;6306631;28;20034;-77
2023/05/13 01:43:48;;;;;;;8.80;5.40;;;;;;;;;;6299689;28;20016;-77
2023/05/13 01:46:52;;;;;;;10.23;6.35;;;;;;;;;;6294738;28;20025;-77
2023/05/13 01:49:52;;;;;;;12.95;5.15;;;;;;;;;;6291909;28;20048;-77
2023/05/13 01:52:52;;;;;;;10.60;5.13;;;;;;;;;;6293375;28;20520;-77
2023/05/13 01:55:52;;;;;;;7.60;5.13;;;;;;;;;;6307950;28;20289;-77
2023/05/13 01:58:53;;;;;;;8.50;5.00;;;;;;;;;;6297816;28;20258;-77
2023/05/13 02:01:53;;;;;;;11.23;4.85;;;;;;;;;;6306496;28;20248;-77
2023/05/13 02:04:53;;;;;;;11.26;4.60;;;;;;;;;;6303536;28;20759;-77
2023/05/13 02:07:53;;;;;;;11.67;5.27;;;;;;;;;;6306116;28;20028;-76
2023/05/13 02:10:57;;;;;;;14.83;5.73;;;;;;;;;;6295314;28;20632;-78
2023/05/13 02:13:57;;;;;;;8.13;4.63;;;;;;;;;;6274807;28;20297;-78
2023/05/13 02:16:58;;;;;;;10.75;6.60;;;;;;;;;;6305715;28;20020;-79
2023/05/13 02:19:58;;;;;;;7.70;5.13;;;;;;;;;;6309275;28;20068;-79
2023/05/13 02:22:59;;;;;;;15.07;5.50;;;;;;;;;;6302911;28;20048;-79
2023/05/13 02:26:00;;;;;;;9.20;4.70;;;;;;;;;;6282516;28;20032;-79
2023/05/13 02:29:01;;;;;;;12.57;6.95;;;;;;;;;;6299917;28;20601;-80
2023/05/13 02:32:01;;;;;;;12.85;5.93;;;;;;;;;;6315789;28;20024;-80
2023/05/13 02:35:01;;;;;;;9.40;5.00;;;;;;;;;;6313371;28;20099;-80
2023/05/13 02:38:03;;;;;;;9.23;5.73;;;;;;;;;;6305929;28;20258;-79
2023/05/13 02:41:03;;;;;;;11.82;5.82;;;;;;;;;;6308090;28;20264;-79
2023/05/13 02:44:04;;;;;;;14.45;5.28;;;;;;;;;;6297269;28;20391;-79
2023/05/13 02:47:06;;;;;;;14.32;6.13;;;;;;;;;;6313154;28;20016;-79
2023/05/13 02:50:08;;;;;;;11.18;6.00;;;;;;;;;;6306602;28;20054;-79
2023/05/13 02:53:10;;;;;;;11.77;5.68;;;;;;;;;;6311772;28;20389;-79
2023/05/13 02:56:10;;;;;;;14.45;5.68;;;;;;;;;;6308305;28;20032;-79
2023/05/13 02:59:10;;;;;;;10.05;5.97;;;;;;;;;;6321715;28;20020;-79
2023/05/13 03:02:11;;;;;;;9.74;5.74;;;;;;;;;;6316456;28;20035;-79
2023/05/13 03:05:11;;;;;;;13.95;6.05;;;;;;;;;;6286388;28;20097;-79
2023/05/13 03:08:11;;;;;;;10.80;6.18;;;;;;;;;;6307059;28;20020;-79
2023/05/13 03:11:11;;;;;;;9.98;6.15;;;;;;;;;;6308294;28;20020;-79
2023/05/13 03:14:13;;;;;;;11.03;6.20;;;;;;;;;;6305619;28;20342;-79
2023/05/13 03:17:13;;;;;;;12.23;5.75;;;;;;;;;;6309530;28;20024;-79
2023/05/13 03:20:13;;;;;;;12.00;5.90;;;;;;;;;;6312509;28;20103;-79
2023/05/13 03:23:13;;;;;;;10.80;6.22;;;;;;;;;;6314619;28;20047;-78
2023/05/13 03:26:13;;;;;;;15.72;6.56;;;;;;;;;;6296646;28;20024;-79
2023/05/13 03:29:14;;;;;;;13.00;6.37;;;;;;;;;;6315014;28;20062;-79
2023/05/13 03:32:14;;;;;;;11.43;6.93;;;;;;;;;;6313974;28;20302;-79
2023/05/13 03:35:14;;;;;;;11.07;7.00;;;;;;;;;;6309643;28;20385;-79
2023/05/13 03:38:14;;;;;;;10.63;5.90;;;;;;;;;;6301607;28;20012;-79
2023/05/13 03:41:16;;;;;;;11.43;6.45;;;;;;;;;;6316748;28;20016;-78
2023/05/13 03:44:19;;;;;;;13.63;6.35;;;;;;;;;;6296053;28;20352;-78
2023/05/13 03:47:19;;;;;;;10.40;6.35;;;;;;;;;;6278312;28;20023;-79
2023/05/13 03:50:19;;;;;;;11.67;6.67;;;;;;;;;;6309426;28;20052;-78
2023/05/13 03:53:19;;;;;;;10.87;7.00;;;;;;;;;;6302520;28;20270;-79
2023/05/13 03:56:21;;;;;;;11.07;6.23;;;;;;;;;;6306615;28;20111;-79
2023/05/13 03:59:21;;;;;;;12.70;6.60;;;;;;;;;;6308288;28;20417;-78
2023/05/13 04:02:22;;;;;;;15.37;7.97;;;;;;;;;;6312478;28;20028;-79
2023/05/13 04:05:23;;;;;;;13.02;6.45;;;;;;;;;;6317484;28;20095;-79
2023/05/13 04:08:23;;;;;;;11.43;6.88;;;;;;;;;;6307313;28;20024;-78
2023/05/13 04:11:24;;;;;;;14.15;7.28;;;;;;;;;;6309202;28;20467;-79
2023/05/13 04:14:25;;;;;;;13.50;7.13;;;;;;;;;;6277045;28;20115;-79
2023/05/13 04:17:26;;;;;;;10.75;6.15;;;;;;;;;;6294832;28;20033;-79
2023/05/13 04:20:27;;;;;;;12.18;6.60;;;;;;;;;;6299762;28;20015;-79
2023/05/13 04:23:28;;;;;;;11.07;5.90;;;;;;;;;;6310515;28;20526;-79
2023/05/13 04:26:28;;;;;;;9.13;6.03;;;;;;;;;;6300233;28;20024;-79
2023/05/13 04:29:28;;;;;;;16.43;6.47;;;;;;;;;;6311571;28;20312;-79
2023/05/13 04:32:28;;;;;;;12.60;6.57;;;;;;;;;;6289886;28;20374;-77
2023/05/13 04:35:28;;;;;;;12.52;6.20;;;;;;;;;;6317554;28;20027;-76
2023/05/13 04:38:31;;;;;;;17.00;6.53;;;;;;;;;;6309121;28;20099;-77
2023/05/13 04:41:31;;;;;;;10.57;6.47;;;;;;;;;;6300802;28;20020;-76
2023/05/13 04:44:32;;;;;;;16.30;6.47;;;;;;;;;;6306264;28;20100;-76
2023/05/13 04:47:36;;;;;;;10.45;6.15;;;;;;;;;;6304926;28;20270;-77
2023/05/13 04:50:36;;;;;;;11.15;5.95;;;;;;;;;;6309567;28;20040;-77
2023/05/13 04:53:37;;;;;;;18.53;6.57;;;;;;;;;;6304775;28;20052;-77
2023/05/13 04:56:37;;;;;;;10.23;6.05;;;;;;;;;;6295234;28;20630;-76
2023/05/13 04:59:37;;;;;;;11.70;6.13;;;;;;;;;;6297704;28;20394;-77
2023/05/13 05:02:37;;;;;;;10.27;5.70;;;;;;;;;;6305709;28;20020;-77
2023/05/13 05:05:38;;;;;;;10.33;4.70;;;;;;;;;;6284399;28;20438;-77
2023/05/13 05:08:38;;;;;;;10.30;6.07;;;;;;;;;;6303228;28;20100;-76
2023/05/13 05:11:38;;;;;;;11.48;5.00;;;;;;;;;;6313120;28;20059;-76
2023/05/13 05:14:38;;;;;;;15.43;6.37;;;;;;;;;;6305984;28;20058;-76
2023/05/13 05:17:39;;;;;;;11.13;5.87;;;;;;;;;;6308076;28;20103;-77
2023/05/13 05:20:39;;;;;;;10.63;5.97;;;;;;;;;;6311072;28;20039;-76
2023/05/13 05:23:40;;;;;;;10.23;5.93;;;;;;;;;;6300110;28;20027;-76
2023/05/13 05:26:40;;;;;;;11.60;5.03;;;;;;;;;;6308625;28;20132;-76
2023/05/13 05:29:40;;;;;;;11.20;5.15;;;;;;;;;;6308641;28;20016;-76
2023/05/13 05:32:41;;;;;;;9.77;4.50;;;;;;;;;;6292167;28;20585;-76
2023/05/13 05:35:41;;;;;;;9.83;5.27;;;;;;;;;;6308958;28;20401;-77
2023/05/13 05:38:41;;;;;;;14.20;5.90;;;;;;;;;;6284642;28;20124;-76
2023/05/13 05:41:41;;;;;;;9.57;4.97;;;;;;;;;;6300411;28;20001;-76
2023/05/13 05:44:41;;;;;;;10.17;4.30;;;;;;;;;;6301749;28;20016;-76
2023/05/13 05:47:42;;;;;;;9.73;4.55;;;;;;;;;;6300202;28;20027;-76
2023/05/13 05:50:42;;;;;;;9.43;4.03;;;;;;;;;;6300652;28;20502;-76
2023/05/13 05:53:43;;;;;;;12.70;4.37;;;;;;;;;;6312433;28;20363;-76
2023/05/13 05:56:43;;;;;;;12.20;4.37;;;;;;;;;;6309629;28;20027;-77
2023/05/13 05:59:43;;;;;;;11.73;4.97;;;;;;;;;;6301487;28;20515;-77
2023/05/13 06:02:43;;;;;;;9.83;4.40;;;;;;;;;;6304287;28;20086;-77
2023/05/13 06:05:43;;;;;;;9.77;4.10;;;;;;;;;;6300217;28;20086;-76
2023/05/13 06:08:45;;;;;;;9.20;3.97;;;;;;;;;;6303055;28;20028;-76
2023/05/13 06:11:45;;;;;;;11.90;3.58;;;;;;;;;;6296630;28;20020;-77
2023/05/13 06:14:46;;;;;;;8.43;3.70;;;;;;;;;;6309930;28;20055;-77
2023/05/13 06:17:46;;;;;;;6.57;3.97;;;;;;;;;;6306595;28;20020;-77
2023/05/13 06:20:46;;;;;;;5.97;3.23;;;;;;;;;;6282205;28;20024;-77
2023/05/13 06:23:46;;;;;;;6.07;2.80;;;;;;;;;;6300689;28;20016;-77
2023/05/13 06:26:47;;;;;;;7.40;3.50;;;;;;;;;;6298786;28;20028;-76
2023/05/13 06:29:47;;;;;;;7.73;3.50;;;;;;;;;;6307094;28;20520;-76
2023/05/13 06:32:48;;;;;;;7.40;2.92;;;;;;;;;;6300310;28;20231;-77
2023/05/13 06:35:48;;;;;;;5.40;2.50;;;;;;;;;;6311101;28;20021;-76
2023/05/13 06:38:48;;;;;;;3.33;2.30;;;;;;;;;;6312881;28;20406;-76
2023/05/13 06:41:49;;;;;;;10.03;3.40;;;;;;;;;;6299235;28;20527;-76
2023/05/13 06:44:49;;;;;;;4.80;2.43;;;;;;;;;;6296722;28;20086;-77
2023/05/13 06:47:50;;;;;;;6.37;2.30;;;;;;;;;;6306183;28;20151;-77
2023/05/13 06:50:50;;;;;;;4.50;2.20;;;;;;;;;;6306642;28;20057;-78
2023/05/13 06:53:50;;;;;;;7.90;3.17;;;;;;;;;;6305499;28;20020;-78
2023/05/13 06:56:51;;;;;;;5.03;3.23;;;;;;;;;;6297330;28;20135;-78
2023/05/13 06:59:51;;;;;;;6.55;2.67;;;;;;;;;;6280225;28;20040;-78
2023/05/13 07:02:51;;;;;;;4.23;2.33;;;;;;;;;;6287414;28;20331;-78
2023/05/13 07:05:51;;;;;;;4.63;2.43;;;;;;;;;;6281712;28;20021;-78
2023/05/13 07:08:52;;;;;;;4.17;2.83;;;;;;;;;;6302838;28;20036;-78
2023/05/13 07:11:52;;;;;;;6.70;2.60;;;;;;;;;;6300455;28;20147;-78
2023/05/13 07:14:54;;;;;;;4.90;2.03;;;;;;;;;;6305748;28;20020;-78
2023/05/13 07:17:54;;;;;;;4.95;2.10;;;;;;;;;;6309976;28;20255;-78
2023/05/13 07:20:57;;;;;;;4.67;2.20;;;;;;;;;;6305464;28;20496;-78
2023/05/13 07:23:57;;;;;;;3.63;2.65;;;;;;;;;;6313325;28;20016;-78
2023/05/13 07:27:00;;;;;;;5.60;2.90;;;;;;;;;;6312056;28;20027;-78
2023/05/13 07:30:00;;;;;;;5.40;2.45;;;;;;;;;;6313206;28;20013;-79
2023/05/13 07:33:00;;;;;;;10.53;2.93;;;;;;;;;;6306620;28;20383;-78
2023/05/13 07:36:00;;;;;;;7.27;2.73;;;;;;;;;;6312609;28;20019;-79
2023/05/13 07:39:01;;;;;;;4.38;2.60;;;;;;;;;;6305956;28;20024;-79
2023/05/13 07:42:02;;;;;;;7.67;2.53;;;;;;;;;;6296157;28;20617;-79
2023/05/13 07:45:02;;;;;;;;;;;;;;;;;;6282790;28;20020;-77
2023/05/13 07:48:02;;;;;;;6.82;2.88;;;;;;;;;;6302861;28;19951;-78
2023/05/13 07:51:03;;;;;;;3.27;1.93;;;;;;;;;;6308537;28;20051;-79
2023/05/13 07:54:04;;;;;;;5.30;2.15;;;;;;;;;;6308165;28;20023;-79
2023/05/13 07:57:04;;;;;;;4.05;2.50;;;;;;;;;;6302259;28;20021;-79
2023/05/13 08:00:05;;;;;;;3.40;1.97;;;;;;;;;;6314188;28;20142;-76
2023/05/13 08:03:05;;;;;;;10.65;4.13;;;;;;;;;;6307471;28;20035;-77
2023/05/13 08:06:05;;;;;;;4.57;2.40;;;;;;;;;;6293905;28;20036;-77
2023/05/13 08:09:06;;;;;;;3.73;2.30;;;;;;;;;;6313260;28;20714;-77
2023/05/13 08:12:06;;;;;;;4.45;2.78;;;;;;;;;;6309837;28;20016;-77
2023/05/13 08:15:07;;;;;;;5.50;2.63;;;;;;;;;;6308473;28;20569;-77
2023/05/13 08:18:07;;;;;;;4.33;2.53;;;;;;;;;;6308664;28;20017;-77
2023/05/13 08:21:07;;;;;;;3.33;2.20;;;;;;;;;;6306777;28;20017;-77
2023/05/13 08:24:09;;;;;;;5.17;2.43;;;;;;;;;;6305521;28;20017;-77
2023/05/13 08:27:09;;;;;;;3.35;2.13;;;;;;;;;;6305806;28;20047;-77
2023/05/13 08:30:11;;;;;;;4.53;2.60;;;;;;;;;;6311922;28;20032;-78
2023/05/13 08:33:11;;;;;;;5.75;2.47;;;;;;;;;;6307865;28;20016;-78
2023/05/13 08:36:11;;;;;;;3.97;2.17;;;;;;;;;;6308338;28;20027;-78
2023/05/13 08:39:13;;;;;;;3.17;2.00;;;;;;;;;;6304963;28;20494;-79
2023/05/13 08:42:17;;;;;;;;;;;;;;;;;;6308171;28;20538;-78
2023/05/13 08:45:19;;;;;;;8.43;2.55;;;;;;;;;;6303554;28;19907;-77
2023/05/13 08:48:20;;;;;;;6.90;2.72;;;;;;;;;;6312988;28;20016;-79
2023/05/13 08:51:20;;;;;;;3.97;2.57;;;;;;;;;;6282088;28;20039;-78
2023/05/13 08:54:21;;;;;;;3.90;2.40;;;;;;;;;;6315983;28;20031;-78
2023/05/13 08:57:21;;;;;;;3.38;2.35;;;;;;;;;;6289908;28;20024;-78
2023/05/13 09:00:21;;;;;;;3.38;2.20;;;;;;;;;;6296403;28;20008;-78
2023/05/13 09:03:22;;;;;;;8.83;2.80;;;;;;;;;;6312583;28;20462;-79
2023/05/13 09:06:22;;;;;;;4.20;2.37;;;;;;;;;;6302223;28;20027;-78
2023/05/13 09:09:22;;;;;;;5.80;2.77;;;;;;;;;;6281803;28;20032;-78
2023/05/13 09:12:42;;;;;;;4.17;2.50;;;;;;;;;;6302277;28;20024;-78
2023/05/13 09:15:43;;;;;;;7.43;2.97;;;;;;;;;;6306329;28;20111;-78
2023/05/13 09:18:43;;;;;;;5.53;2.72;;;;;;;;;;6309743;28;20548;-79
2023/05/13 09:21:43;;;;;;;7.53;3.07;;;;;;;;;;6311710;28;20046;-78
2023/05/13 09:24:53;;;;;;;5.53;2.67;;;;;;;;;;6306545;28;20020;-78
2023/05/13 09:27:56;;;;;;;5.22;2.95;;;;;;;;;;6296431;28;20023;-78
2023/05/13 09:30:56;;;;;;;7.10;2.70;;;;;;;;;;6310153;28;20023;-79
2023/05/13 09:33:56;;;;;;;6.10;2.78;;;;;;;;;;6307960;28;20009;-78
2023/05/13 09:36:57;;;;;;;7.23;2.30;;;;;;;;;;6294009;28;20611;-79
2023/05/13 09:39:57;;;;;;;4.83;2.13;;;;;;;;;;6306200;28;20020;-79
2023/05/13 09:42:58;;;;;;;4.90;2.97;;;;;;;;;;6292301;28;20119;-78
2023/05/13 09:46:02;;;;;;;7.88;2.83;;;;;;;;;;6305169;28;20020;-78
2023/05/13 09:49:02;;;;;;;5.00;2.47;;;;;;;;;;6301681;28;20071;-79
2023/05/13 09:52:08;;;;;;;7.43;2.47;;;;;;;;;;6314439;28;20020;-78
2023/05/13 09:55:09;;;;;;;6.80;2.47;;;;;;;;;;6313567;28;20026;-79
2023/05/13 09:58:11;;;;;;;3.60;2.13;;;;;;;;;;6295466;28;20021;-78
2023/05/13 10:01:11;;;;;;;5.15;2.05;;;;;;;;;;6311751;28;20468;-78
2023/05/13 10:04:11;;;;;;;3.33;2.03;;;;;;;;;;6294035;28;20017;-78
2023/05/13 10:07:12;;;;;;;17.80;4.17;;;;;;;;;;6307206;28;20020;-79
2023/05/13 10:10:14;;;;;;;9.50;3.30;;;;;;;;;;6303831;28;20020;-79
2023/05/13 10:13:15;;;;;;;5.17;1.90;;;;;;;;;;6294683;28;20021;-79
2023/05/13 10:16:17;;;;;;;4.88;2.83;;;;;;;;;;6314945;28;20016;-79
2023/05/13 10:19:17;;;;;;;5.20;2.08;;;;;;;;;;6297742;28;20016;-79
2023/05/13 10:22:31;;;;;;;7.17;2.53;;;;;;;;;;6307557;28;20043;-77
2023/05/13 10:25:32;;;;;;;8.00;2.40;;;;;;;;;;6306476;28;20029;-77
2023/05/13 10:28:33;;;;;;;4.55;2.47;;;;;;;;;;6305708;28;20461;-77
2023/05/13 10:31:33;;;;;;;6.23;2.30;;;;;;;;;;6286025;28;20048;-77
2023/05/13 10:34:34;;;;;;;14.18;2.65;;;;;;;;;;6282359;28;20050;-77
2023/05/13 10:37:38;;;;;;;5.93;2.20;;;;;;;;;;6299664;28;20031;-78
2023/05/13 10:40:44;;;;;;;9.90;2.95;;;;;;;;;;6274813;28;20020;-77
2023/05/13 10:43:44;;;;;;;3.47;2.63;;;;;;;;;;6302373;28;20024;-78
2023/05/13 10:46:48;;;;;;;10.80;2.50;;;;;;;;;;6309611;28;20070;-78
2023/05/13 10:49:51;;;;;;;8.05;2.95;;;;;;;;;;6305078;28;20509;-80
2023/05/13 10:52:57;;;;;;;6.45;3.13;;;;;;;;;;6320650;28;20035;-79
2023/05/13 10:55:58;;;;;;;9.93;2.50;;;;;;;;;;6297858;28;20095;-79
2023/05/13 10:59:00;;;;;;;7.15;2.20;;;;;;;;;;6298594;28;20012;-79
2023/05/13 11:02:35;;;;;;;5.53;2.60;;;;;;;;;;6310326;28;20086;-79
2023/05/13 11:05:54;;;;;;;5.35;2.55;;;;;;;;;;6243251;28;20029;-79
2023/05/13 11:08:54;;;;;;;5.53;2.38;;;;;;;;;;6306875;28;20513;-79
2023/05/13 11:11:55;;;;;;;7.93;3.43;;;;;;;;;;6292563;28;20024;-80
2023/05/13 11:14:56;;;;;;;7.65;3.10;;;;;;;;;;6308432;28;20059;-80
2023/05/13 11:17:56;;;;;;;5.37;2.50;;;;;;;;;;6290117;28;20028;-80
2023/05/13 11:21:02;;;;;;;5.90;2.57;;;;;;;;;;6310655;28;20027;-80
2023/05/13 11:24:04;;;;;;;6.40;2.70;;;;;;;;;;6302645;28;20785;-80
2023/05/13 11:27:15;;;;;;;10.00;3.40;;;;;;;;;;6298888;28;20524;-80
2023/05/13 11:30:22;;;;;;;5.75;2.33;;;;;;;;;;6307128;28;20117;-81
2023/05/13 11:33:22;;;;;;;3.92;2.63;;;;;;;;;;6313869;28;20390;-80
2023/05/13 11:36:28;;;;;;;6.57;3.57;;;;;;;;;;6283719;28;20063;-80
2023/05/13 11:39:28;;;;;;;13.23;3.60;;;;;;;;;;6290696;28;20482;-80
2023/05/13 11:42:29;;;;;;;11.63;3.40;;;;;;;;;;6284919;28;20020;-80
2023/05/13 11:45:29;;;;;;;8.83;2.70;;;;;;;;;;6294444;28;20031;-79
2023/05/13 11:48:29;;;;;;;8.53;2.90;;;;;;;;;;6301759;28;20181;-79
2023/05/13 11:51:31;;;;;;;8.13;2.80;;;;;;;;;;6304288;28;20107;-79
2023/05/13 11:54:38;;;;;;;4.25;2.58;;;;;;;;;;6302072;28;20834;-79
2023/05/13 11:57:40;;;;;;;7.85;3.47;;;;;;;;;;6308905;28;20032;-79
2023/05/13 12:00:41;;;;;;;7.65;3.03;;;;;;;;;;6319115;28;20031;-79
2023/05/13 12:03:41;;;;;;;7.43;2.60;;;;;;;;;;6310282;28;20035;-79
2023/05/13 12:06:43;;;;;;;5.67;3.27;;;;;;;;;;6301217;28;20494;-79
2023/05/13 12:09:43;;;;;;;7.93;2.67;;;;;;;;;;6306760;28;20363;-79
2023/05/13 12:12:44;;;;;;;4.43;2.17;;;;;;;;;;6306080;28;20032;-79
2023/05/13 12:15:44;;;;;;;5.13;3.08;;;;;;;;;;6304401;28;20064;-79
2023/05/13 12:18:55;;;;;;;4.63;2.10;;;;;;;;;;6294724;28;20491;-79
2023/05/13 12:21:55;;;;;;;5.63;2.58;;;;;;;;;;6316500;28;20016;-79
2023/05/13 12:24:59;;;;;;;9.53;2.80;;;;;;;;;;6300175;28;20473;-79
2023/05/13 12:28:08;;;;;;;5.35;2.55;;;;;;;;;;6310915;28;20081;-79
2023/05/13 12:31:14;;;;;;;6.63;2.42;;;;;;;;;;6303574;28;20541;-79
2023/05/13 12:34:28;;;;;;;4.00;2.47;;;;;;;;;;6301734;28;20031;-79
2023/05/13 12:37:28;;;;;;;3.80;2.00;;;;;;;;;;6303322;28;20028;-79
2023/05/13 12:40:29;;;;;;;7.15;2.58;;;;;;;;;;6308030;28;20112;-79
2023/05/13 12:43:32;;;;;;;4.50;2.20;;;;;;;;;;6304285;28;20090;-79
2023/05/13 12:46:33;;;;;;;9.55;2.95;;;;;;;;;;6306378;28;20024;-79
2023/05/13 12:49:34;;;;;;;5.32;2.45;;;;;;;;;;6304580;28;20139;-79
2023/05/13 12:52:34;;;;;;;4.43;3.03;;;;;;;;;;6302249;28;20131;-80
2023/05/13 12:55:38;;;;;;;6.60;1.83;;;;;;;;;;6309426;28;20476;-79
2023/05/13 12:58:42;;;;;;;5.82;2.22;;;;;;;;;;6300817;28;20012;-79
2023/05/13 13:01:42;;;;;;;5.72;2.53;;;;;;;;;;6299951;28;20043;-79
2023/05/13 13:04:42;;;;;;;3.60;2.13;;;;;;;;;;6306052;28;20023;-79
2023/05/13 13:07:42;;;;;;;5.00;2.58;;;;;;;;;;6292136;28;20024;-79
2023/05/13 13:10:42;;;;;;;3.13;1.83;;;;;;;;;;6292429;28;20045;-76
2023/05/13 13:13:46;;;;;;;5.07;2.20;;;;;;;;;;6305894;28;20024;-77
2023/05/13 13:16:47;;;;;;;7.85;2.47;;;;;;;;;;6282050;28;20031;-77
2023/05/13 13:19:47;;;;;;;4.87;2.20;;;;;;;;;;6302877;28;20385;-77
2023/05/13 13:22:47;;;;;;;5.40;2.03;;;;;;;;;;6298654;28;20027;-77
2023/05/13 13:25:48;;;;;;;5.30;2.35;;;;;;;;;;6305563;28;20474;-77
2023/05/13 13:28:48;;;;;;;9.57;2.30;;;;;;;;;;6304257;28;20036;-76
2023/05/13 13:31:48;;;;;;;5.83;1.93;;;;;;;;;;6313457;28;20073;-77
2023/05/13 13:34:48;;;;;;;4.70;1.83;;;;;;;;;;6281205;28;20024;-77
2023/05/13 13:37:49;;;;;;;6.70;2.10;;;;;;;;;;6298039;28;20020;-77
2023/05/13 13:40:49;;;;;;;2.65;2.10;;;;;;;;;;6307889;28;20818;-77
2023/05/13 13:43:50;;;;;;;4.50;2.33;;;;;;;;;;6311439;28;20073;-77
2023/05/13 13:46:50;;;;;;;7.30;2.27;;;;;;;;;;6307803;28;20040;-77
2023/05/13 13:49:50;;;;;;;9.57;2.53;;;;;;;;;;6299224;28;20062;-79
2023/05/13 13:52:51;;;;;;;4.83;1.73;;;;;;;;;;6308074;28;20024;-79
2023/05/13 13:55:51;;;;;;;4.63;2.07;;;;;;;;;;6312317;28;20081;-79
2023/05/13 13:58:51;;;;;;;6.83;2.50;;;;;;;;;;6301965;28;20211;-79
2023/05/13 14:01:52;;;;;;;7.50;2.17;;;;;;;;;;6294024;28;20043;-79
2023/05/13 14:04:52;;;;;;;4.00;2.17;;;;;;;;;;6309068;28;20541;-79
2023/05/13 14:07:54;;;;;;;12.67;2.70;;;;;;;;;;6306694;28;20028;-79
2023/05/13 14:10:54;;;;;;;;;;;;;;;;;;6310883;28;20028;-80
2023/05/13 14:13:54;;;;;;;4.55;2.40;;;;;;;;;;6309076;28;19947;-80
2023/05/13 14:16:55;;;;;;;2.87;2.20;;;;;;;;;;6316553;28;20078;-79
2023/05/13 14:19:56;;;;;;;5.13;2.30;;;;;;;;;;6311255;28;20024;-77
2023/05/13 14:22:57;;;;;;;6.32;2.38;;;;;;;;;;6298721;28;20488;-77
2023/05/13 14:25:57;;;;;;;7.00;2.47;;;;;;;;;;6311098;28;20035;-77
2023/05/13 14:28:57;;;;;;;3.53;2.67;;;;;;;;;;6302237;28;20030;-77
2023/05/13 14:31:58;;;;;;;4.07;2.60;;;;;;;;;;6307549;28;20024;-77
2023/05/13 14:34:58;;;;;;;4.83;2.70;;;;;;;;;;6295945;28;20432;-77
2023/05/13 14:37:58;;;;;;;5.93;2.67;;;;;;;;;;6293052;28;20021;-77
2023/05/13 14:40:58;;;;;;;5.20;2.43;;;;;;;;;;6315188;28;20891;-77
2023/05/13 14:44:00;;;;;;;5.70;1.92;;;;;;;;;;6304387;28;20026;-77
2023/05/13 14:47:00;;;;;;;3.75;2.15;;;;;;;;;;6290524;28;20029;-77
2023/05/13 14:50:00;;;;;;;3.00;2.00;;;;;;;;;;6321726;28;20536;-77
2023/05/13 14:53:00;;;;;;;4.53;2.30;;;;;;;;;;6328292;28;20031;-78
2023/05/13 14:56:01;;;;;;;5.37;2.43;;;;;;;;;;6314121;28;20036;-77
2023/05/13 14:59:01;;;;;;;4.37;2.77;;;;;;;;;;6324351;28;20007;-77
2023/05/13 15:02:02;;;;;;;4.13;2.40;;;;;;;;;;6325651;28;20019;-80
2023/05/13 15:05:02;;;;;;;4.40;2.27;;;;;;;;;;6321210;28;20493;-80
2023/05/13 15:08:02;;;;;;;4.10;2.00;;;;;;;;;;6332850;28;20046;-80
2023/05/13 15:11:03;;;;;;;5.10;2.20;;;;;;;;;;6321837;28;20019;-80
2023/05/13 15:14:03;;;;;;;4.73;2.50;;;;;;;;;;6311659;28;20024;-80
2023/05/13 15:17:04;;;;;;;3.07;2.00;;;;;;;;;;6333878;28;20027;-80
2023/05/13 15:20:06;;;;;;;4.10;2.10;;;;;;;;;;6326451;28;20045;-80
2023/05/13 15:23:06;;;;;;;4.13;2.20;;;;;;;;;;6328935;28;20024;-80
2023/05/13 15:26:06;;;;;;;6.07;1.90;;;;;;;;;;6313047;28;20081;-80
2023/05/13 15:29:06;;;;;;;7.53;2.67;;;;;;;;;;6330954;28;20024;-80
2023/05/13 15:32:07;;;;;;;5.28;2.20;;;;;;;;;;6338766;27;20028;-78
2023/05/13 15:35:07;;;;;;;3.70;2.57;;;;;;;;;;6319084;28;20024;-78
2023/05/13 15:38:09;;;;;;;7.60;2.87;;;;;;;;;;6336259;27;20726;-78
2023/05/13 15:41:09;;;;;;;5.68;2.47;;;;;;;;;;6335263;28;20017;-78
2023/05/13 15:44:09;;;;;;;7.27;3.47;;;;;;;;;;6340943;27;20234;-78
2023/05/13 15:47:10;;;;;;;8.40;3.03;;;;;;;;;;6339997;27;20030;-77
2023/05/13 15:50:10;;;;;;;8.27;2.57;;;;;;;;;;6336813;28;20138;-78
2023/05/13 15:53:10;;;;;;;11.23;3.20;;;;;;;;;;6331416;28;20501;-78
2023/05/13 15:56:11;;;;;;;7.17;3.10;;;;;;;;;;6338105;28;20044;-78
2023/05/13 15:59:11;;;;;;;4.13;3.00;;;;;;;;;;6329471;28;20024;-78
2023/05/13 16:02:11;;;;;;;5.22;2.95;;;;;;;;;;6322596;28;20157;-78
2023/05/13 16:05:14;;;;;;;6.73;3.77;;;;;;;;;;6335754;28;20016;-78
2023/05/13 16:08:14;;;;;;;4.60;2.70;;;;;;;;;;6335075;27;20019;-78
2023/05/13 16:11:14;;;;;;;13.17;5.63;;;;;;;;;;6326269;28;20126;-78
2023/05/13 16:14:14;;;;;;;7.17;3.23;;;;;;;;;;6331490;28;20115;-77
2023/05/13 16:17:15;;;;;;;5.87;2.77;;;;;;;;;;6331996;28;20035;-78
2023/05/13 16:20:15;;;;;;;5.77;2.90;;;;;;;;;;6328534;27;20016;-78
2023/05/13 16:23:15;;;;;;;5.90;3.17;;;;;;;;;;6325717;27;20420;-78
2023/05/13 16:26:15;;;;;;;6.60;3.23;;;;;;;;;;6338057;27;20016;-78
2023/05/13 16:29:16;;;;;;;7.57;2.50;;;;;;;;;;6327400;27;20435;-78
2023/05/13 16:32:16;;;;;;;8.23;2.93;;;;;;;;;;6331302;27;20470;-78
2023/05/13 16:35:16;;;;;;;6.93;3.33;;;;;;;;;;6327249;28;20595;-78
2023/05/13 16:38:17;;;;;;;10.03;5.17;;;;;;;;;;6335162;28;20435;-78
2023/05/13 16:41:17;;;;;;;14.10;8.27;;;;;;;;;;6325593;28;20056;-78
2023/05/13 16:44:17;;;;;;;9.83;4.50;;;;;;;;;;6335173;28;20545;-78
2023/05/13 16:47:17;;;;;;;10.30;3.23;;;;;;;;;;6339165;28;20019;-78
2023/05/13 16:50:17;;;;;;;6.00;3.20;;;;;;;;;;6306897;27;20080;-78
2023/05/13 16:53:21;;;;;;;8.77;3.53;;;;;;;;;;6283703;28;20032;-78
2023/05/13 16:56:21;;;;;;;19.27;10.52;;;;;;;;;;6298079;28;20036;-78
2023/05/13 16:59:22;;;;;;;6.97;3.40;;;;;;;;;;6300096;28;20780;-78
2023/05/13 17:02:23;;;;;;;7.45;2.97;;;;;;;;;;6279426;28;20133;-78
2023/05/13 17:05:23;;;;;;;6.25;3.25;;;;;;;;;;6299377;28;20028;-78
2023/05/13 17:08:23;;;;;;;7.33;3.27;;;;;;;;;;6309725;28;20024;-78
2023/05/13 17:11:25;;;;;;;7.53;3.43;;;;;;;;;;6296048;28;20024;-78
2023/05/13 17:14:25;;;;;;;9.02;3.90;;;;;;;;;;6300284;28;20024;-78
2023/05/13 17:17:25;;;;;;;8.17;3.20;;;;;;;;;;6306202;28;20039;-78
2023/05/13 17:20:26;;;;;;;27.13;9.98;;;;;;;;;;6297928;28;20043;-81
2023/05/13 17:23:26;;;;;;;25.58;11.43;;;;;;;;;;6300422;28;20020;-80
2023/05/13 17:26:26;;;;;;;19.33;8.10;;;;;;;;;;6300939;28;20051;-81
2023/05/13 17:29:26;;;;;;;9.00;4.63;;;;;;;;;;6305858;28;20019;-80
2023/05/13 17:32:27;;;;;;;4.55;3.00;;;;;;;;;;6312499;28;20130;-81
2023/05/13 17:35:27;;;;;;;6.57;2.30;;;;;;;;;;6304490;28;20025;-81
2023/05/13 17:38:27;;;;;;;8.43;3.73;;;;;;;;;;6313050;28;20485;-79
2023/05/13 17:41:28;;;;;;;6.03;3.60;;;;;;;;;;6293813;28;20016;-76
2023/05/13 17:44:28;;;;;;;6.17;2.93;;;;;;;;;;6301410;28;20024;-77
2023/05/13 17:47:28;;;;;;;18.83;8.23;;;;;;;;;;6301454;28;20980;-77
2023/05/13 17:50:31;;;;;;;57.30;21.17;;;;;;;;;;6295552;28;20044;-79
2023/05/13 17:53:32;;;;;;;38.63;17.15;;;;;;;;;;6336168;28;20063;-81
2023/05/13 17:56:32;;;;;;;13.17;5.20;;;;;;;;;;6334815;28;20023;-79
2023/05/13 17:59:32;;;;;;;32.03;13.87;;;;;;;;;;6331754;28;20132;-80
2023/05/13 18:02:32;;;;;;;10.68;5.22;;;;;;;;;;6332931;28;20531;-79